createdAt,value
2018-04-26T00:00:55.945Z,101219.66
2018-04-26T00:03:22.866Z,101218.01
2018-04-26T00:05:49.759Z,101224.33
2018-04-26T00:08:16.778Z,101216.11
2018-04-26T00:10:43.728Z,101218.30
2018-04-26T00:13:10.607Z,101213.05
2018-04-26T00:15:37.665Z,101214.44
2018-04-26T00:18:04.542Z,101219.45
2018-04-26T00:20:31.468Z,101206.95
2018-04-26T00:22:58.541Z,101194.50
2018-04-26T00:25:25.423Z,101191.91
2018-04-26T00:27:52.300Z,101175.99
2018-04-26T00:30:19.420Z,101158.97
2018-04-26T00:32:46.298Z,101164.38
2018-04-26T00:35:14.037Z,101156.66
2018-04-26T00:37:40.930Z,101147.88
2018-04-26T00:40:07.822Z,101142.69
2018-04-26T00:42:34.694Z,101130.19
2018-04-26T00:45:01.722Z,101129.02
2018-04-26T00:47:28.652Z,101123.14
2018-04-26T00:49:55.548Z,101127.47
2018-04-26T00:52:23.312Z,101121.26
2018-04-26T00:54:50.985Z,101126.02
2018-04-26T00:57:18.681Z,101121.38
2018-04-26T00:59:46.409Z,101124.16
2018-04-26T01:02:14.084Z,101131.92
2018-04-26T01:04:40.976Z,101128.55
2018-04-26T01:07:07.987Z,101119.56
2018-04-26T01:09:34.860Z,101124.80
2018-04-26T01:12:01.740Z,101122.39
2018-04-26T01:14:28.759Z,101127.13
2018-04-26T01:16:55.699Z,101127.86
2018-04-26T01:19:22.572Z,101121.70
2018-04-26T01:21:49.549Z,101126.05
2018-04-26T01:24:16.433Z,101124.63
2018-04-26T01:26:43.331Z,101127.26
2018-04-26T01:29:11.143Z,101123.55
2018-04-26T01:31:38.097Z,101124.45
2018-04-26T01:34:05.028Z,101126.70
2018-04-26T01:36:50.484Z,101124.05
2018-04-26T01:39:17.368Z,101127.72
2018-04-26T01:41:44.255Z,101126.23
2018-04-26T01:44:11.933Z,101127.81
2018-04-26T01:46:39.605Z,101122.47
2018-04-26T01:49:06.869Z,101119.16
2018-04-26T01:51:34.733Z,101116.13
2018-04-26T01:54:01.648Z,101118.66
2018-04-26T01:56:29.332Z,101123.64
2018-04-26T01:58:56.273Z,101123.83
2018-04-26T02:01:23.164Z,101120.70
2018-04-26T02:03:50.828Z,101119.56
2018-04-26T02:06:17.905Z,101116.81
2018-04-26T02:08:44.787Z,101116.13
2018-04-26T02:11:11.683Z,101117.58
2018-04-26T02:13:38.755Z,101114.30
2018-04-26T02:16:05.680Z,101123.11
2018-04-26T02:18:32.702Z,101116.94
2018-04-26T02:20:59.785Z,101126.54
2018-04-26T02:23:26.744Z,101122.19
2018-04-26T02:25:54.368Z,101121.28
2018-04-26T02:28:21.446Z,101115.01
2018-04-26T02:30:48.332Z,101118.59
2018-04-26T02:33:15.317Z,101109.34
2018-04-26T02:35:42.398Z,101109.44
2018-04-26T02:38:09.328Z,101110.62
2018-04-26T02:40:36.274Z,101110.20
2018-04-26T02:43:03.203Z,101115.53
2018-04-26T02:45:30.125Z,101112.46
2018-04-26T02:47:57.052Z,101110.73
2018-04-26T02:50:24.078Z,101114.28
2018-04-26T02:52:51.286Z,101109.41
2018-04-26T02:55:18.176Z,101112.58
2018-04-26T02:57:45.930Z,101114.87
2018-04-26T03:00:12.827Z,101113.39
2018-04-26T03:02:39.701Z,101117.69
2018-04-26T03:05:06.712Z,101121.59
2018-04-26T03:07:33.602Z,101121.16
2018-04-26T03:10:00.481Z,101119.08
2018-04-26T03:12:28.232Z,101115.50
2018-04-26T03:14:55.172Z,101118.66
2018-04-26T03:17:22.055Z,101121.32
2018-04-26T03:19:49.085Z,101120.73
2018-04-26T03:22:16.742Z,101117.45
2018-04-26T03:24:44.373Z,101123.84
2018-04-26T03:27:11.398Z,101124.53
2018-04-26T03:29:38.325Z,101130.91
2018-04-26T03:32:05.210Z,101127.50
2018-04-26T03:34:32.228Z,101127.45
2018-04-26T03:36:59.190Z,101120.03
2018-04-26T03:39:26.137Z,101115.76
2018-04-26T03:41:53.209Z,101114.58
2018-04-26T03:44:20.080Z,101121.13
2018-04-26T03:46:47.046Z,101122.38
2018-04-26T03:49:14.068Z,101126.23
2018-04-26T03:51:40.947Z,101118.57
2018-04-26T03:54:07.827Z,101116.72
2018-04-26T03:56:34.961Z,101118.94
2018-04-26T03:59:01.845Z,101123.58
2018-04-26T04:01:47.186Z,101116.94
2018-04-26T04:04:32.402Z,101121.81
2018-04-26T04:06:59.448Z,101124.34
2018-04-26T04:09:26.329Z,101122.96
2018-04-26T04:11:53.216Z,101121.91
2018-04-26T04:14:20.193Z,101124.84
2018-04-26T04:16:47.139Z,101126.23
2018-04-26T04:19:14.077Z,101123.42
2018-04-26T04:21:41.092Z,101123.17
2018-04-26T04:24:08.065Z,101129.51
2018-04-26T04:26:34.929Z,101122.84
2018-04-26T04:29:01.857Z,101128.55
2018-04-26T04:31:28.763Z,101132.78
2018-04-26T04:33:55.775Z,101127.02
2018-04-26T04:36:22.756Z,101135.51
2018-04-26T04:38:49.687Z,101134.45
2018-04-26T04:41:17.773Z,101134.67
2018-04-26T04:43:44.930Z,101134.23
2018-04-26T04:46:11.893Z,101141.01
2018-04-26T04:48:38.865Z,101143.32
2018-04-26T04:51:06.037Z,101142.83
2018-04-26T04:53:33.666Z,101142.56
2018-04-26T04:56:00.609Z,101144.25
2018-04-26T04:58:27.664Z,101148.58
2018-04-26T05:00:54.625Z,101145.86
2018-04-26T05:03:21.924Z,101149.41
2018-04-26T05:05:49.059Z,101153.25
2018-04-26T05:08:16.668Z,101151.61
2018-04-26T05:10:43.551Z,101164.31
2018-04-26T05:13:10.692Z,101165.05
2018-04-26T05:15:37.683Z,101171.09
2018-04-26T05:18:04.636Z,101167.09
2018-04-26T05:20:31.709Z,101169.42
2018-04-26T05:22:59.374Z,101174.86
2018-04-26T05:25:26.255Z,101177.95
2018-04-26T05:27:53.230Z,101177.10
2018-04-26T05:30:20.119Z,101173.98
2018-04-26T05:32:47.048Z,101181.48
2018-04-26T05:35:14.110Z,101186.57
2018-04-26T05:37:40.993Z,101184.62
2018-04-26T05:40:08.630Z,101186.36
2018-04-26T05:42:35.548Z,101184.67
2018-04-26T05:45:02.476Z,101191.17
2018-04-26T05:47:29.361Z,101192.17
2018-04-26T05:49:57.186Z,101199.06
2018-04-26T05:52:24.104Z,101194.42
2018-04-26T05:54:51.826Z,101193.75
2018-04-26T05:57:18.859Z,101204.27
2018-04-26T05:59:45.816Z,101200.64
2018-04-26T06:02:13.391Z,101207.21
2018-04-26T06:04:40.529Z,101209.03
2018-04-26T06:07:07.409Z,101217.73
2018-04-26T06:09:34.343Z,101206.98
2018-04-26T06:12:01.430Z,101211.99
2018-04-26T06:14:29.097Z,101217.38
2018-04-26T06:16:56.098Z,101219.32
2018-04-26T06:19:23.171Z,101223.95
2018-04-26T06:21:50.044Z,101229.02
2018-04-26T06:24:16.911Z,101231.81
2018-04-26T06:26:43.975Z,101229.72
2018-04-26T06:29:10.862Z,101237.23
2018-04-26T06:31:38.490Z,101234.27
2018-04-26T06:34:05.606Z,101235.84
2018-04-26T06:36:32.492Z,101244.13
2018-04-26T06:38:59.412Z,101237.44
2018-04-26T06:41:26.489Z,101247.05
2018-04-26T06:43:53.422Z,101240.96
2018-04-26T06:46:20.318Z,101242.17
2018-04-26T06:48:48.059Z,101234.91
2018-04-26T06:51:14.926Z,101246.55
2018-04-26T06:53:42.635Z,101245.77
2018-04-26T06:56:09.731Z,101254.51
2018-04-26T06:58:37.463Z,101253.55
2018-04-26T07:01:04.352Z,101258.55
2018-04-26T07:03:32.085Z,101262.23
2018-04-26T07:05:58.947Z,101260.58
2018-04-26T07:08:26.570Z,101258.85
2018-04-26T07:10:53.464Z,101269.53
2018-04-26T07:13:21.064Z,101272.73
2018-04-26T07:15:47.908Z,101275.56
2018-04-26T07:18:14.953Z,101276.29
2018-04-26T07:20:41.796Z,101277.03
2018-04-26T07:23:08.655Z,101286.75
2018-04-26T07:25:35.651Z,101287.59
2018-04-26T07:28:03.267Z,101288.52
2018-04-26T07:30:30.120Z,101294.58
2018-04-26T07:32:56.998Z,101302.41
2018-04-26T07:35:24.583Z,101299.84
2018-04-26T07:37:51.434Z,101297.81
2018-04-26T07:40:18.492Z,101294.24
2018-04-26T07:42:45.365Z,101302.07
2018-04-26T07:45:12.207Z,101306.83
2018-04-26T07:47:39.195Z,101309.61
2018-04-26T07:50:06.782Z,101305.98
2018-04-26T07:52:33.631Z,101306.19
2018-04-26T07:55:00.639Z,101310.12
2018-04-26T07:57:27.540Z,101313.56
2018-04-26T07:59:55.120Z,101314.51
2018-04-26T08:02:22.160Z,101318.52
2018-04-26T08:04:49.005Z,101322.65
2018-04-26T08:07:15.856Z,101320.81
2018-04-26T08:09:42.887Z,101319.05
2018-04-26T08:12:09.738Z,101321.33
2018-04-26T08:14:36.599Z,101333.70
2018-04-26T08:17:03.690Z,101329.61
2018-04-26T08:19:31.352Z,101329.73
2018-04-26T08:21:58.167Z,101335.05
2018-04-26T08:24:26.090Z,101344.41
2018-04-26T08:26:52.973Z,101339.80
2018-04-26T08:29:19.855Z,101340.48
2018-04-26T08:31:46.772Z,101337.92
2018-04-26T08:34:13.627Z,101338.92
2018-04-26T08:36:40.495Z,101340.20
2018-04-26T08:39:08.275Z,101351.31
2018-04-26T08:41:35.116Z,101355.37
2018-04-26T08:44:01.971Z,101364.19
2018-04-26T08:46:28.995Z,101365.33
2018-04-26T08:48:56.590Z,101368.14
2018-04-26T08:51:24.179Z,101363.73
2018-04-26T08:53:51.163Z,101363.72
2018-04-26T08:56:18.751Z,101372.73
2018-04-26T08:58:45.656Z,101370.59
2018-04-26T09:01:12.682Z,101374.69
2018-04-26T09:03:39.540Z,101374.44
2018-04-26T09:06:06.392Z,101375.87
2018-04-26T09:08:33.667Z,101371.47
2018-04-26T09:11:01.265Z,101384.33
2018-04-26T09:13:28.113Z,101373.59
2018-04-26T09:15:55.186Z,101370.36
2018-04-26T09:18:22.025Z,101383.45
2018-04-26T09:20:48.879Z,101380.30
2018-04-26T09:23:15.907Z,101383.52
2018-04-26T09:25:42.761Z,101384.45
2018-04-26T09:28:09.610Z,101384.09
2018-04-26T09:30:36.512Z,101373.63
2018-04-26T09:33:03.351Z,101373.01
2018-04-26T09:35:30.193Z,101373.83
2018-04-26T09:37:57.420Z,101364.09
2018-04-26T09:40:25.025Z,101356.41
2018-04-26T09:42:51.876Z,101358.28
2018-04-26T09:45:18.927Z,101369.45
2018-04-26T09:47:45.853Z,101382.53
2018-04-26T09:50:12.732Z,101384.12
2018-04-26T09:52:39.722Z,101382.25
2018-04-26T09:55:07.292Z,101382.20
2018-04-26T09:57:34.882Z,101383.06
2018-04-26T10:00:01.943Z,101376.13
2018-04-26T10:02:28.839Z,101382.80
2018-04-26T10:04:56.473Z,101380.06
2018-04-26T10:07:23.520Z,101382.83
2018-04-26T10:09:50.379Z,101378.09
2018-04-26T10:12:17.224Z,101393.50
2018-04-26T10:14:51.088Z,101403.73
2018-04-26T10:17:18.008Z,101434.88
2018-04-26T10:19:44.861Z,101442.12
2018-04-26T10:22:11.870Z,101437.42
2018-04-26T10:24:39.153Z,101429.52
2018-04-26T10:27:06.111Z,101442.61
2018-04-26T10:29:33.135Z,101438.36
2018-04-26T10:32:00.714Z,101447.32
2018-04-26T10:34:27.572Z,101452.22
2018-04-26T10:36:54.629Z,101448.53
2018-04-26T10:39:21.484Z,101428.83
2018-04-26T10:41:48.347Z,101433.31
2018-04-26T10:44:15.459Z,101432.53
2018-04-26T10:46:42.329Z,101431.59
2018-04-26T10:49:09.238Z,101436.18
2018-04-26T10:51:36.146Z,101425.78
2018-04-26T10:54:02.983Z,101428.58
2018-04-26T10:56:29.836Z,101425.88
2018-04-26T10:58:56.884Z,101429.10
2018-04-26T11:01:23.724Z,101426.55
2018-04-26T11:03:50.566Z,101418.20
2018-04-26T11:06:17.630Z,101424.93
2018-04-26T11:08:45.224Z,101421.19
2018-04-26T11:11:12.126Z,101471.00
2018-04-26T11:13:39.162Z,101485.23
2018-04-26T11:16:06.012Z,101481.37
2018-04-26T11:18:32.887Z,101494.47
2018-04-26T11:20:59.932Z,101492.00
2018-04-26T11:23:27.529Z,101481.66
2018-04-26T11:25:54.386Z,101484.42
2018-04-26T11:28:21.415Z,101479.14
2018-04-26T11:30:48.277Z,101484.72
2018-04-26T11:33:15.138Z,101484.90
2018-04-26T11:35:42.032Z,101476.22
2018-04-26T11:38:09.622Z,101476.02
2018-04-26T11:40:36.482Z,101472.36
2018-04-26T11:43:03.380Z,101470.24
2018-04-26T11:45:30.232Z,101468.52
2018-04-26T11:47:57.080Z,101457.34
2018-04-26T11:50:24.019Z,101459.21
2018-04-26T11:52:50.953Z,101453.63
2018-04-26T11:55:17.738Z,101453.58
2018-04-26T11:57:44.822Z,101449.42
2018-04-26T12:00:11.662Z,101453.93
2018-04-26T12:02:38.587Z,101454.55
2018-04-26T12:05:06.185Z,101459.89
2018-04-26T12:07:33.030Z,101468.84
2018-04-26T12:09:59.872Z,101461.33
2018-04-26T12:12:27.002Z,101474.09
2018-04-26T12:14:53.836Z,101482.14
2018-04-26T12:17:21.511Z,101476.97
2018-04-26T12:19:48.385Z,101472.54
2018-04-26T12:22:15.210Z,101466.46
2018-04-26T12:24:42.044Z,101470.45
2018-04-26T12:27:09.071Z,101472.39
2018-04-26T12:29:35.901Z,101485.08
2018-04-26T12:32:02.732Z,101481.03
2018-04-26T12:34:29.768Z,101469.08
2018-04-26T12:36:57.353Z,101479.09
2018-04-26T12:39:24.189Z,101477.86
2018-04-26T12:41:51.163Z,101474.34
2018-04-26T12:44:18.009Z,101472.48
2018-04-26T12:46:44.891Z,101474.58
2018-04-26T12:49:11.929Z,101472.51
2018-04-26T12:51:38.769Z,101469.61
2018-04-26T12:54:05.601Z,101477.42
2018-04-26T12:56:32.635Z,101490.91
2018-04-26T12:58:59.471Z,101496.81
2018-04-26T13:01:26.321Z,101498.97
2018-04-26T13:03:53.320Z,101492.29
2018-04-26T13:06:20.180Z,101494.31
2018-04-26T13:08:47.755Z,101497.11
2018-04-26T13:11:14.731Z,101502.62
2018-04-26T13:13:41.682Z,101505.77
2018-04-26T13:16:08.580Z,101503.52
2018-04-26T13:18:36.367Z,101502.38
2018-04-26T13:21:03.287Z,101500.98
2018-04-26T13:23:30.088Z,101503.39
2018-04-26T13:25:57.762Z,101503.72
2018-04-26T13:28:25.385Z,101514.44
2018-04-26T13:30:52.281Z,101502.27
2018-04-26T13:33:19.314Z,101505.47
2018-04-26T13:35:46.192Z,101507.35
2018-04-26T13:38:13.784Z,101510.64
2018-04-26T13:40:40.672Z,101509.03
2018-04-26T13:43:07.635Z,101508.42
2018-04-26T13:45:34.516Z,101506.78
2018-04-26T13:48:01.526Z,101506.52
2018-04-26T13:50:29.126Z,101507.58
2018-04-26T13:52:56.712Z,101512.66
2018-04-26T13:55:23.696Z,101511.81
2018-04-26T13:57:50.543Z,101502.65
2018-04-26T14:00:17.388Z,101495.42
2018-04-26T14:02:45.187Z,101501.08
2018-04-26T14:05:12.041Z,101498.31
2018-04-26T14:07:39.134Z,101517.58
2018-04-26T14:10:06.140Z,101507.38
2018-04-26T14:12:33.020Z,101507.09
2018-04-26T14:14:59.915Z,101508.12
2018-04-26T14:17:26.878Z,101507.52
2018-04-26T14:19:53.709Z,101502.17
2018-04-26T14:22:20.551Z,101499.84
2018-04-26T14:24:47.582Z,101493.48
2018-04-26T14:27:15.160Z,101499.84
2018-04-26T14:29:42.064Z,101497.47
2018-04-26T14:32:09.128Z,101506.55
2018-04-26T14:34:36.720Z,101499.25
2018-04-26T14:37:03.681Z,101509.20
2018-04-26T14:39:30.499Z,101508.66
2018-04-26T14:41:57.357Z,101517.16
2018-04-26T14:44:24.197Z,101530.34
2018-04-26T14:46:51.184Z,101535.40
2018-04-26T14:49:18.023Z,101545.16
2018-04-26T14:51:44.866Z,101554.94
2018-04-26T14:54:12.988Z,101570.20
2018-04-26T14:56:40.007Z,101565.83
2018-04-26T14:59:06.865Z,101558.36
2018-04-26T15:01:33.903Z,101530.17
2018-04-26T15:04:00.774Z,101530.02
2018-04-26T15:06:27.705Z,101529.64
2018-04-26T15:08:55.452Z,101535.52
2018-04-26T15:11:23.081Z,101538.90
2018-04-26T15:13:49.935Z,101537.75
2018-04-26T15:16:16.939Z,101533.81
2018-04-26T15:18:44.537Z,101537.83
2018-04-26T15:21:11.382Z,101533.80
2018-04-26T15:23:38.375Z,101529.39
2018-04-26T15:26:05.230Z,101530.80
2018-04-26T15:28:32.811Z,101532.05
2018-04-26T15:30:59.703Z,101529.88
2018-04-26T15:33:26.585Z,101529.14
2018-04-26T15:35:54.168Z,101529.75
2018-04-26T15:38:21.215Z,101527.93
2018-04-26T15:40:48.067Z,101528.02
2018-04-26T15:43:14.908Z,101522.55
2018-04-26T15:45:43.233Z,101536.92
2018-04-26T15:48:10.095Z,101532.91
2018-04-26T15:50:52.068Z,101532.91
2018-04-26T15:53:37.244Z,101534.08
2018-04-26T15:56:15.325Z,101534.87
2018-04-26T16:02:34.725Z,101528.61
2018-04-26T16:05:26.105Z,101532.68
2018-04-26T16:08:18.514Z,101537.57
2018-04-26T16:11:09.851Z,101535.03
2018-04-26T16:14:05.428Z,101536.02
2018-04-26T16:16:56.437Z,101543.52
2018-04-26T16:23:06.080Z,101541.44
2018-04-26T16:25:51.409Z,101540.52
2018-04-26T16:28:42.644Z,101543.70
2018-04-26T16:31:34.041Z,101536.45
2018-04-26T16:34:19.863Z,101536.34
2018-04-26T16:37:05.162Z,101541.97
2018-04-26T16:39:31.993Z,101541.13
2018-04-26T16:41:59.589Z,101535.19
2018-04-26T16:44:27.231Z,101543.70
2018-04-26T16:46:54.110Z,101540.72
2018-04-26T16:49:20.962Z,101538.76
2018-04-26T16:51:48.005Z,101547.68
2018-04-26T16:54:14.847Z,101538.09
2018-04-26T16:56:41.684Z,101545.52
2018-04-26T16:59:08.728Z,101546.66
2018-04-26T17:01:35.587Z,101546.66
2018-04-26T17:04:02.471Z,101548.86
2018-04-26T17:06:30.229Z,101544.00
2018-04-26T17:08:57.080Z,101552.28
2018-04-26T17:11:23.923Z,101556.11
2018-04-26T17:13:50.879Z,101556.73
2018-04-26T17:16:17.761Z,101562.78
2018-04-26T17:18:44.610Z,101552.64
2018-04-26T17:21:11.633Z,101558.70
2018-04-26T17:23:39.223Z,101561.50
2018-04-26T17:26:06.094Z,101565.21
2018-04-26T17:28:32.993Z,101567.53
2018-04-26T17:30:59.926Z,101568.69
2018-04-26T17:33:27.566Z,101571.72
2018-04-26T17:35:54.479Z,101584.35
2018-04-26T17:38:21.327Z,101577.32
2018-04-26T17:40:48.165Z,101574.55
2018-04-26T17:43:15.215Z,101581.38
2018-04-26T17:45:42.197Z,101581.98
2018-04-26T17:48:08.983Z,101581.94
2018-04-26T17:50:35.973Z,101585.50
2018-04-26T17:53:02.973Z,101583.76
2018-04-26T17:55:29.855Z,101585.43
2018-04-26T17:57:56.901Z,101582.05
2018-04-26T18:00:23.747Z,101591.55
2018-04-26T18:02:50.837Z,101593.00
2018-04-26T18:05:18.576Z,101594.05
2018-04-26T18:07:45.421Z,101597.47
2018-04-26T18:10:13.240Z,101606.31
2018-04-26T18:12:40.216Z,101603.76
2018-04-26T18:15:07.090Z,101615.98
2018-04-26T18:17:34.506Z,101615.30
2018-04-26T18:20:08.570Z,101620.92
2018-04-26T18:22:30.471Z,101625.41
2018-04-26T18:24:57.442Z,101631.67
2018-04-26T18:27:25.203Z,101635.45
2018-04-26T18:29:52.103Z,101629.34
2018-04-26T18:32:19.138Z,101644.64
2018-04-26T18:34:46.528Z,101639.91
2018-04-26T18:37:13.399Z,101646.13
2018-04-26T18:39:40.472Z,101652.50
2018-04-26T18:42:08.119Z,101647.39
2018-04-26T18:44:34.960Z,101660.89
2018-04-26T18:47:01.803Z,101656.36
2018-04-26T18:49:28.808Z,101664.92
2018-04-26T18:51:55.675Z,101670.23
2018-04-26T18:54:22.539Z,101672.73
2018-04-26T18:56:49.617Z,101671.30
2018-04-26T18:59:17.197Z,101678.02
2018-04-26T19:01:44.790Z,101677.27
2018-04-26T19:04:11.876Z,101673.59
2018-04-26T19:06:39.631Z,101678.17
2018-04-26T19:09:07.192Z,101681.59
2018-04-26T19:11:34.384Z,101680.18
2018-04-26T19:14:01.347Z,101688.41
2018-04-26T19:16:28.320Z,101684.34
2018-04-26T19:18:55.367Z,101686.10
2018-04-26T19:21:22.372Z,101691.70
2018-04-26T19:23:49.363Z,101687.33
2018-04-26T19:26:16.262Z,101688.08
2018-04-26T19:28:43.177Z,101690.55
2018-04-26T19:31:10.842Z,101700.77
2018-04-26T19:33:38.684Z,101702.83
2018-04-26T19:36:05.691Z,101698.60
2018-04-26T19:38:32.593Z,101709.80
2018-04-26T19:40:59.747Z,101702.55
2018-04-26T19:43:26.584Z,101706.71
2018-04-26T19:45:53.419Z,101708.92
2018-04-26T19:48:20.414Z,101718.10
2018-04-26T19:50:47.265Z,101712.55
2018-04-26T19:53:14.961Z,101712.52
2018-04-26T19:55:41.934Z,101708.44
2018-04-26T19:58:08.911Z,101716.23
2018-04-26T20:00:35.755Z,101705.56
2018-04-26T20:03:03.121Z,101705.97
2018-04-26T20:05:29.963Z,101699.27
2018-04-26T20:07:56.975Z,101701.33
2018-04-26T20:10:24.071Z,101690.40
2018-04-26T20:12:50.999Z,101695.55
2018-04-26T20:15:18.795Z,101697.58
2018-04-26T20:17:45.807Z,101700.08
2018-04-26T20:20:12.711Z,101699.82
2018-04-26T20:22:39.550Z,101701.06
2018-04-26T20:25:06.431Z,101696.77
2018-04-26T20:27:34.028Z,101689.84
2018-04-26T20:30:00.889Z,101694.56
2018-04-26T20:32:27.924Z,101691.03
2018-04-26T20:34:54.779Z,101689.84
2018-04-26T20:37:22.064Z,101693.38
2018-04-26T20:39:49.867Z,101698.87
2018-04-26T20:42:17.459Z,101697.56
2018-04-26T20:44:51.273Z,101698.52
2018-04-26T20:47:18.118Z,101692.12
2018-04-26T20:49:44.976Z,101696.20
2018-04-26T20:52:12.043Z,101690.72
2018-04-26T20:54:38.884Z,101694.30
2018-04-26T20:57:05.754Z,101700.30
2018-04-26T20:59:33.471Z,101696.13
2018-04-26T21:02:00.331Z,101691.21
2018-04-26T21:04:27.180Z,101690.47
2018-04-26T21:06:54.183Z,101692.73
2018-04-26T21:09:21.025Z,101693.93
2018-04-26T21:11:47.876Z,101696.25
2018-04-26T21:14:14.777Z,101686.95
2018-04-26T21:16:42.386Z,101693.11
2018-04-26T21:19:09.272Z,101696.85
2018-04-26T21:21:36.177Z,101693.66
2018-04-26T21:24:03.081Z,101691.66
2018-04-26T21:26:30.692Z,101689.99
2018-04-26T21:28:57.720Z,101697.39
2018-04-26T21:31:24.807Z,101698.94
2018-04-26T21:33:51.650Z,101699.31
2018-04-26T21:36:19.475Z,101699.86
2018-04-26T21:38:46.348Z,101703.34
2018-04-26T21:41:13.193Z,101703.42
2018-04-26T21:43:40.087Z,101712.82
2018-04-26T21:46:06.931Z,101715.31
2018-04-26T21:48:34.517Z,101713.44
2018-04-26T21:51:07.679Z,101715.84
2018-04-26T21:53:41.260Z,101717.66
2018-04-26T21:56:14.387Z,101718.48
2018-04-26T21:58:48.153Z,101719.73
2018-04-26T22:01:21.184Z,101714.39
2018-04-26T22:06:52.358Z,101718.03
2018-04-26T22:09:19.203Z,101716.47
2018-04-26T22:11:46.797Z,101718.78
2018-04-26T22:14:13.705Z,101719.73
2018-04-26T22:16:41.306Z,101721.75
2018-04-26T22:19:08.145Z,101718.08
2018-04-26T22:21:35.941Z,101722.43
2018-04-26T22:24:02.783Z,101716.37
2018-04-26T22:26:29.623Z,101713.94
2018-04-26T22:28:56.676Z,101706.34
2018-04-26T22:31:23.476Z,101714.48
2018-04-26T22:33:50.325Z,101710.20
2018-04-26T22:36:17.198Z,101709.98
2018-04-26T22:38:44.044Z,101707.84
2018-04-26T22:41:10.885Z,101712.21
2018-04-26T22:43:37.959Z,101714.05
2018-04-26T22:46:04.804Z,101707.18
2018-04-26T22:48:31.641Z,101708.16
2018-04-26T22:50:58.547Z,101707.81
2018-04-26T22:53:25.453Z,101712.52
2018-04-26T22:55:53.071Z,101715.21
2018-04-26T22:58:20.050Z,101710.30
2018-04-26T23:00:46.912Z,101709.95
2018-04-26T23:03:14.493Z,101708.19
2018-04-26T23:05:41.532Z,101697.45
2018-04-26T23:08:09.107Z,101696.26
2018-04-26T23:10:35.939Z,101701.86
2018-04-26T23:13:02.994Z,101701.95
2018-04-26T23:15:29.851Z,101698.31
2018-04-26T23:17:57.423Z,101700.37
2018-04-26T23:20:24.323Z,101701.49
2018-04-26T23:22:51.919Z,101702.39
2018-04-26T23:25:18.763Z,101694.98
2018-04-26T23:27:45.657Z,101696.46
2018-04-26T23:30:12.515Z,101697.06
2018-04-26T23:32:40.109Z,101697.23
2018-04-26T23:35:07.148Z,101698.89
2018-04-26T23:37:33.983Z,101698.34
2018-04-26T23:40:01.567Z,101699.95
2018-04-26T23:42:28.568Z,101702.53
2018-04-26T23:44:55.414Z,101700.83
2018-04-26T23:47:22.241Z,101700.88
2018-04-26T23:49:49.271Z,101699.84
2018-04-26T23:52:16.111Z,101702.56
2018-04-26T23:54:42.999Z,101693.69
2018-04-26T23:57:09.985Z,101696.38
2018-04-26T23:59:36.836Z,101694.44
